Time;durP1;ratioP1;P1;durP2;ratioP2;P2;SDS_P1;SDS_P2;PMS_P1;PMS_P2;Temp;Humidity;BMP_temperature;BMP_pressure;BME280_temperature;BME280_humidity;BME280_pressure;Samples;Min_cycle;Max_cycle;Signal;HPM_P1;HPM_P2
2023/10/24 00:02:13;;;;;;;4.37;4.07;;;;;;;;;;5071539;28;20892;-69
2023/10/24 00:04:39;;;;;;;4.27;3.97;;;;;;;;;;5070259;28;20546;-70
2023/10/24 00:07:05;;;;;;;2.83;2.63;;;;;;;;;;5072963;28;20448;-67
2023/10/24 00:09:31;;;;;;;4.63;4.33;;;;;;;;;;5072773;28;20440;-68
2023/10/24 00:11:57;;;;;;;4.63;4.20;;;;;;;;;;5069579;28;20449;-68
2023/10/24 00:14:23;;;;;;;2.63;2.63;;;;;;;;;;5071809;28;20782;-67
2023/10/24 00:16:48;;;;;;;4.27;3.97;;;;;;;;;;5070119;28;20441;-71
2023/10/24 00:19:14;;;;;;;3.97;3.67;;;;;;;;;;5072985;28;20464;-70
2023/10/24 00:21:40;;;;;;;4.00;3.77;;;;;;;;;;5071975;28;20498;-68
2023/10/24 00:24:06;;;;;;;3.77;3.57;;;;;;;;;;5071762;28;21096;-68
2023/10/24 00:26:32;;;;;;;4.40;4.00;;;;;;;;;;5069563;28;20504;-68
2023/10/24 00:28:58;;;;;;;5.63;4.60;;;;;;;;;;5070458;28;20865;-70
2023/10/24 00:31:24;;;;;;;4.80;4.40;;;;;;;;;;5068488;28;20814;-70
2023/10/24 00:33:50;;;;;;;3.30;3.10;;;;;;;;;;5072198;28;20428;-69
2023/10/24 00:36:16;;;;;;;3.83;3.70;;;;;;;;;;5077760;28;20519;-69
2023/10/24 00:38:42;;;;;;;4.30;3.90;;;;;;;;;;5071065;28;20441;-70
2023/10/24 00:41:08;;;;;;;4.87;3.97;;;;;;;;;;5069285;28;20433;-68
2023/10/24 00:43:34;;;;;;;4.30;4.00;;;;;;;;;;5069848;28;20470;-69
2023/10/24 00:46:00;;;;;;;4.50;3.60;;;;;;;;;;5069282;28;20526;-70
2023/10/24 00:48:28;;;;;;;3.10;3.00;;;;;;;;;;5078758;28;20473;-68
2023/10/24 00:50:54;;;;;;;4.07;3.87;;;;;;;;;;5085725;28;20477;-67
2023/10/24 00:53:20;;;;;;;4.03;3.73;;;;;;;;;;5091421;28;20451;-68
2023/10/24 00:55:46;;;;;;;5.00;4.60;;;;;;;;;;5084824;28;20440;-70
2023/10/24 00:58:13;;;;;;;1.70;1.70;;;;;;;;;;5080692;28;20502;-67
2023/10/24 01:00:40;;;;;;;9.23;3.87;;;;;;;;;;5084693;28;20425;-68
2023/10/24 01:03:06;;;;;;;8.53;4.13;;;;;;;;;;5080881;28;20445;-67
2023/10/24 01:05:32;;;;;;;5.60;4.63;;;;;;;;;;5086663;28;20519;-69
2023/10/24 01:07:58;;;;;;;4.60;4.30;;;;;;;;;;5081765;28;20805;-69
2023/10/24 01:10:24;;;;;;;6.27;4.47;;;;;;;;;;5080702;28;20517;-68
2023/10/24 01:12:51;;;;;;;3.40;2.80;;;;;;;;;;5088227;28;20534;-67
2023/10/24 01:15:17;;;;;;;4.87;4.57;;;;;;;;;;5093455;28;20428;-68
2023/10/24 01:17:52;;;;;;;5.33;4.70;;;;;;;;;;5089242;28;20808;-67
2023/10/24 01:20:18;;;;;;;5.43;5.23;;;;;;;;;;5087752;28;20435;-67
2023/10/24 01:22:45;;;;;;;4.53;4.23;;;;;;;;;;5085317;28;21025;-68
2023/10/24 01:25:13;;;;;;;4.17;3.90;;;;;;;;;;5072517;28;20553;-67
2023/10/24 01:27:40;;;;;;;7.10;4.07;;;;;;;;;;5074292;28;20453;-71
2023/10/24 01:30:06;;;;;;;4.70;4.17;;;;;;;;;;5074925;28;20449;-69
2023/10/24 01:32:32;;;;;;;4.47;3.83;;;;;;;;;;5079218;28;20440;-68
2023/10/24 01:34:58;;;;;;;5.30;4.93;;;;;;;;;;5091074;28;20452;-68
2023/10/24 01:37:24;;;;;;;4.90;4.40;;;;;;;;;;5088686;28;20532;-68
2023/10/24 01:39:50;;;;;;;4.20;3.90;;;;;;;;;;5084293;28;20787;-68
2023/10/24 01:42:16;;;;;;;4.87;4.40;;;;;;;;;;5088157;28;20436;-70
2023/10/24 01:44:42;;;;;;;5.83;3.90;;;;;;;;;;5079003;28;20479;-68
2023/10/24 01:47:08;;;;;;;3.63;3.43;;;;;;;;;;5073210;28;20437;-68
2023/10/24 01:49:34;;;;;;;4.07;3.87;;;;;;;;;;5073349;28;20433;-68
2023/10/24 01:52:00;;;;;;;8.20;3.63;;;;;;;;;;5073142;28;20501;-67
2023/10/24 01:54:26;;;;;;;5.80;4.20;;;;;;;;;;5079262;28;20429;-68
2023/10/24 01:56:52;;;;;;;4.37;4.10;;;;;;;;;;5084417;28;21038;-69
2023/10/24 01:59:18;;;;;;;3.83;3.53;;;;;;;;;;5079022;28;20899;-68
2023/10/24 02:01:44;;;;;;;5.93;5.07;;;;;;;;;;5079347;28;20452;-67
2023/10/24 02:04:10;;;;;;;4.03;3.73;;;;;;;;;;5088696;28;20425;-67
2023/10/24 02:06:36;;;;;;;3.53;3.40;;;;;;;;;;5087138;28;20627;-69
2023/10/24 02:09:02;;;;;;;4.43;3.87;;;;;;;;;;5087047;28;20436;-67
2023/10/24 02:11:28;;;;;;;3.80;3.60;;;;;;;;;;5088168;28;20983;-69
2023/10/24 02:13:54;;;;;;;5.53;5.03;;;;;;;;;;5083960;28;20436;-68
2023/10/24 02:16:20;;;;;;;4.53;4.13;;;;;;;;;;5076658;28;20840;-70
2023/10/24 02:18:46;;;;;;;5.13;4.53;;;;;;;;;;5086791;28;20429;-68
2023/10/24 02:21:12;;;;;;;3.77;3.57;;;;;;;;;;5091096;28;20420;-68
2023/10/24 02:23:38;;;;;;;3.77;3.23;;;;;;;;;;5089735;28;20516;-68
2023/10/24 02:26:04;;;;;;;3.67;3.47;;;;;;;;;;5085419;28;20491;-67
2023/10/24 02:28:30;;;;;;;10.07;4.20;;;;;;;;;;5084951;28;20527;-67
2023/10/24 02:30:55;;;;;;;4.17;3.73;;;;;;;;;;5075701;28;20929;-67
2023/10/24 02:33:21;;;;;;;4.17;3.83;;;;;;;;;;5073985;28;20436;-67
2023/10/24 02:35:47;;;;;;;5.30;3.73;;;;;;;;;;5089064;28;20451;-67
2023/10/24 02:38:13;;;;;;;4.40;4.00;;;;;;;;;;5082851;28;20444;-67
2023/10/24 02:40:39;;;;;;;5.13;4.07;;;;;;;;;;5088066;28;20436;-67
2023/10/24 02:43:05;;;;;;;4.30;3.17;;;;;;;;;;5090466;28;20532;-67
2023/10/24 02:45:31;;;;;;;4.20;3.80;;;;;;;;;;5085101;28;20484;-67
2023/10/24 02:47:57;;;;;;;15.13;4.00;;;;;;;;;;5085030;28;20416;-67
2023/10/24 02:50:23;;;;;;;4.07;3.73;;;;;;;;;;5087601;28;20449;-67
2023/10/24 02:52:49;;;;;;;4.60;4.30;;;;;;;;;;5081175;28;20436;-67
2023/10/24 02:55:15;;;;;;;3.67;3.47;;;;;;;;;;5086239;28;20440;-67
2023/10/24 02:57:41;;;;;;;3.37;3.27;;;;;;;;;;5076338;28;20483;-68
2023/10/24 03:00:07;;;;;;;3.53;3.43;;;;;;;;;;5075985;28;20433;-68
2023/10/24 03:02:33;;;;;;;3.50;3.27;;;;;;;;;;5086738;28;20425;-67
2023/10/24 03:04:59;;;;;;;5.87;3.60;;;;;;;;;;5083526;28;20480;-68
2023/10/24 03:07:25;;;;;;;3.97;3.60;;;;;;;;;;5085047;28;20428;-68
2023/10/24 03:09:51;;;;;;;4.30;3.90;;;;;;;;;;5082048;28;20807;-67
2023/10/24 03:12:17;;;;;;;4.53;3.97;;;;;;;;;;5081934;28;20440;-69
2023/10/24 03:14:43;;;;;;;3.53;3.37;;;;;;;;;;5081382;28;20795;-67
2023/10/24 03:17:09;;;;;;;3.07;2.87;;;;;;;;;;5086958;28;20904;-68
2023/10/24 03:19:35;;;;;;;5.10;3.30;;;;;;;;;;5086141;28;20846;-68
2023/10/24 03:22:01;;;;;;;3.20;3.00;;;;;;;;;;5089427;28;20448;-68
2023/10/24 03:24:30;;;;;;;4.03;3.57;;;;;;;;;;5090647;28;20435;-68
2023/10/24 03:26:56;;;;;;;5.53;2.17;;;;;;;;;;5089707;28;20455;-69
2023/10/24 03:29:22;;;;;;;3.87;3.60;;;;;;;;;;5090387;28;20409;-69
2023/10/24 03:31:48;;;;;;;3.80;2.83;;;;;;;;;;5088984;28;20944;-70
2023/10/24 03:34:14;;;;;;;1.90;1.90;;;;;;;;;;5088715;28;20435;-69
2023/10/24 03:36:40;;;;;;;3.40;3.10;;;;;;;;;;5089640;28;20983;-68
2023/10/24 03:39:06;;;;;;;2.67;2.57;;;;;;;;;;5088325;28;20942;-69
2023/10/24 03:41:32;;;;;;;3.43;3.23;;;;;;;;;;5090397;28;20944;-67
2023/10/24 03:43:58;;;;;;;3.63;3.37;;;;;;;;;;5089815;28;20444;-68
2023/10/24 03:46:24;;;;;;;2.60;2.50;;;;;;;;;;5085555;28;20524;-69
2023/10/24 03:48:50;;;;;;;2.43;2.30;;;;;;;;;;5089483;28;20455;-68
2023/10/24 03:51:16;;;;;;;2.67;2.47;;;;;;;;;;5084367;28;20460;-67
2023/10/24 03:53:42;;;;;;;2.97;2.77;;;;;;;;;;5080433;28;20441;-67
2023/10/24 03:56:08;;;;;;;3.53;2.63;;;;;;;;;;5090403;28;20494;-68
2023/10/24 03:58:34;;;;;;;9.37;2.47;;;;;;;;;;5087178;28;20853;-67
2023/10/24 04:01:06;;;;;;;4.33;2.20;;;;;;;;;;5084860;28;20445;-68
2023/10/24 04:03:32;;;;;;;6.80;3.00;;;;;;;;;;5087981;28;20445;-67
2023/10/24 04:05:58;;;;;;;2.80;2.70;;;;;;;;;;5090159;28;20508;-68
2023/10/24 04:08:24;;;;;;;2.67;2.47;;;;;;;;;;5090035;28;20452;-67
2023/10/24 04:10:50;;;;;;;2.50;2.40;;;;;;;;;;5085773;28;20437;-68
2023/10/24 04:13:16;;;;;;;3.80;2.70;;;;;;;;;;5087726;28;20439;-67
2023/10/24 04:15:42;;;;;;;2.93;2.63;;;;;;;;;;5083750;28;20440;-67
2023/10/24 04:18:08;;;;;;;4.40;3.33;;;;;;;;;;5089300;28;20424;-67
2023/10/24 04:20:35;;;;;;;3.77;3.20;;;;;;;;;;5087501;28;21031;-67
2023/10/24 04:23:03;;;;;;;3.17;2.97;;;;;;;;;;5086275;28;20441;-67
2023/10/24 04:25:30;;;;;;;2.90;2.80;;;;;;;;;;5083342;28;20485;-67
2023/10/24 04:27:56;;;;;;;5.27;3.50;;;;;;;;;;5087711;28;20466;-67
2023/10/24 04:30:22;;;;;;;4.13;3.60;;;;;;;;;;5088275;28;20464;-67
2023/10/24 04:32:48;;;;;;;4.97;3.57;;;;;;;;;;5087910;28;20475;-67
2023/10/24 04:35:14;;;;;;;3.50;3.30;;;;;;;;;;5087031;28;20437;-67
2023/10/24 04:37:40;;;;;;;4.77;3.53;;;;;;;;;;5086203;28;20963;-67
2023/10/24 04:40:07;;;;;;;7.67;4.17;;;;;;;;;;5086904;28;20443;-67
2023/10/24 04:42:33;;;;;;;2.40;2.00;;;;;;;;;;5088459;28;20436;-67
2023/10/24 04:44:59;;;;;;;6.00;3.47;;;;;;;;;;5089053;28;20548;-68
2023/10/24 04:47:25;;;;;;;5.30;3.80;;;;;;;;;;5084786;28;20551;-67
2023/10/24 04:49:51;;;;;;;3.50;3.20;;;;;;;;;;5087657;28;20432;-67
2023/10/24 04:52:17;;;;;;;3.10;3.10;;;;;;;;;;5087335;28;20429;-67
2023/10/24 04:54:44;;;;;;;3.57;3.17;;;;;;;;;;5088142;28;20431;-67
2023/10/24 04:57:10;;;;;;;4.17;3.87;;;;;;;;;;5084034;28;20476;-67
2023/10/24 04:59:37;;;;;;;3.10;3.03;;;;;;;;;;5085976;28;20959;-67
2023/10/24 05:02:03;;;;;;;4.37;4.10;;;;;;;;;;5086402;28;20436;-66
2023/10/24 05:04:29;;;;;;;3.33;3.13;;;;;;;;;;5086416;28;20810;-66
2023/10/24 05:06:56;;;;;;;6.20;3.70;;;;;;;;;;5087640;28;20995;-66
2023/10/24 05:09:22;;;;;;;4.90;3.97;;;;;;;;;;5086059;28;20433;-66
2023/10/24 05:11:48;;;;;;;4.10;2.50;;;;;;;;;;5083131;28;20463;-66
2023/10/24 05:14:14;;;;;;;2.80;2.50;;;;;;;;;;5078216;28;20788;-67
2023/10/24 05:16:40;;;;;;;2.93;2.60;;;;;;;;;;5084328;28;20462;-67
2023/10/24 05:19:06;;;;;;;2.20;2.10;;;;;;;;;;5083931;28;20460;-67
2023/10/24 05:21:33;;;;;;;4.70;4.20;;;;;;;;;;5088311;28;20452;-67
2023/10/24 05:23:59;;;;;;;2.23;2.13;;;;;;;;;;5085811;28;20461;-67
2023/10/24 05:26:25;;;;;;;3.87;2.50;;;;;;;;;;5084380;28;21170;-67
2023/10/24 05:28:51;;;;;;;2.30;2.20;;;;;;;;;;5087894;28;20547;-67
2023/10/24 05:31:17;;;;;;;4.60;2.77;;;;;;;;;;5080402;28;20433;-67
2023/10/24 05:33:44;;;;;;;1.50;1.50;;;;;;;;;;5087504;28;20426;-66
2023/10/24 05:36:10;;;;;;;2.13;2.00;;;;;;;;;;5088740;28;20432;-67
2023/10/24 05:38:36;;;;;;;3.40;1.60;;;;;;;;;;5087463;28;20436;-66
2023/10/24 05:41:02;;;;;;;2.37;2.27;;;;;;;;;;5089940;28;20465;-68
2023/10/24 05:43:28;;;;;;;1.67;1.67;;;;;;;;;;5090612;28;20452;-68
2023/10/24 05:45:54;;;;;;;2.00;1.90;;;;;;;;;;5074913;28;20583;-67
2023/10/24 05:48:23;;;;;;;2.20;2.20;;;;;;;;;;5089114;28;20432;-67
2023/10/24 05:50:49;;;;;;;2.97;1.73;;;;;;;;;;5090026;28;20432;-67
2023/10/24 05:53:15;;;;;;;3.37;1.90;;;;;;;;;;5089438;28;20812;-67
2023/10/24 05:55:41;;;;;;;2.40;2.20;;;;;;;;;;5091030;28;20428;-67
2023/10/24 05:58:07;;;;;;;4.60;4.10;;;;;;;;;;5089654;28;20467;-65
2023/10/24 06:00:33;;;;;;;2.83;2.63;;;;;;;;;;5087503;28;20436;-67
2023/10/24 06:02:59;;;;;;;1.93;1.93;;;;;;;;;;5090834;28;20420;-67
2023/10/24 06:05:24;;;;;;;2.93;2.47;;;;;;;;;;5090516;28;20727;-67
2023/10/24 06:07:51;;;;;;;4.93;2.80;;;;;;;;;;5087290;28;20437;-67
2023/10/24 06:10:17;;;;;;;2.90;2.80;;;;;;;;;;5087554;28;20511;-67
2023/10/24 06:12:43;;;;;;;3.07;2.63;;;;;;;;;;5088125;28;20566;-67
2023/10/24 06:15:10;;;;;;;2.67;2.20;;;;;;;;;;5087435;28;20433;-67
2023/10/24 06:17:36;;;;;;;2.57;2.47;;;;;;;;;;5088992;28;20459;-67
2023/10/24 06:20:02;;;;;;;5.37;2.50;;;;;;;;;;5088469;28;20815;-67
2023/10/24 06:22:31;;;;;;;9.73;6.30;;;;;;;;;;5089051;28;20483;-67
2023/10/24 06:25:00;;;;;;;3.50;3.40;;;;;;;;;;5091736;28;20488;-67
2023/10/24 06:27:26;;;;;;;4.93;4.57;;;;;;;;;;5086076;28;20455;-67
2023/10/24 06:29:52;;;;;;;2.90;2.40;;;;;;;;;;5084767;28;20437;-67
2023/10/24 06:32:18;;;;;;;4.70;3.50;;;;;;;;;;5088524;28;20790;-67
2023/10/24 06:34:44;;;;;;;2.03;2.03;;;;;;;;;;5091805;28;20944;-67
2023/10/24 06:37:10;;;;;;;0.80;0.80;;;;;;;;;;5090737;28;20444;-67
2023/10/24 06:39:36;;;;;;;1.60;1.50;;;;;;;;;;5084756;28;20447;-67
2023/10/24 06:42:02;;;;;;;0.80;0.80;;;;;;;;;;5078305;28;20473;-67
2023/10/24 06:44:28;;;;;;;1.80;1.17;;;;;;;;;;5091538;28;20754;-68
2023/10/24 06:46:54;;;;;;;1.83;1.73;;;;;;;;;;5090450;28;20472;-67
2023/10/24 06:49:20;;;;;;;1.93;1.93;;;;;;;;;;5090650;28;20412;-67
2023/10/24 06:51:46;;;;;;;1.93;1.93;;;;;;;;;;5089581;28;20445;-67
2023/10/24 06:54:12;;;;;;;2.03;1.93;;;;;;;;;;5086188;28;20447;-67
2023/10/24 06:56:38;;;;;;;2.40;2.20;;;;;;;;;;5085077;28;20530;-67
2023/10/24 06:59:04;;;;;;;2.70;1.50;;;;;;;;;;5085118;28;20440;-68
2023/10/24 07:01:31;;;;;;;2.50;2.40;;;;;;;;;;5086073;28;20440;-67
2023/10/24 07:03:57;;;;;;;1.93;1.83;;;;;;;;;;5089131;28;20416;-68
2023/10/24 07:06:23;;;;;;;1.40;1.40;;;;;;;;;;5088560;28;21074;-67
2023/10/24 07:08:51;;;;;;;1.90;1.60;;;;;;;;;;5089925;28;20425;-68
2023/10/24 07:11:17;;;;;;;2.40;2.00;;;;;;;;;;5084462;28;20785;-69
2023/10/24 07:13:43;;;;;;;5.27;1.40;;;;;;;;;;5088665;28;20448;-68
2023/10/24 07:16:16;;;;;;;8.13;1.73;;;;;;;;;;5090082;28;20439;-68
2023/10/24 07:18:42;;;;;;;1.47;1.33;;;;;;;;;;5083349;28;20456;-68
2023/10/24 07:21:08;;;;;;;6.67;3.60;;;;;;;;;;5087292;28;20444;-68
2023/10/24 07:23:34;;;;;;;7.43;4.83;;;;;;;;;;5083404;28;20936;-67
2023/10/24 07:26:00;;;;;;;18.30;5.30;;;;;;;;;;5079839;28;20479;-68
2023/10/24 07:28:26;;;;;;;5.43;5.10;;;;;;;;;;5088019;28;20457;-67
2023/10/24 07:30:54;;;;;;;4.47;4.17;;;;;;;;;;5087124;28;20535;-69
2023/10/24 07:33:20;;;;;;;12.50;4.47;;;;;;;;;;5089079;28;20429;-72
2023/10/24 07:35:48;;;;;;;5.87;4.20;;;;;;;;;;5089590;28;20428;-68
2023/10/24 07:38:14;;;;;;;4.50;3.83;;;;;;;;;;5088362;28;20409;-68
2023/10/24 07:40:40;;;;;;;5.10;4.70;;;;;;;;;;5085929;28;20432;-67
2023/10/24 07:43:07;;;;;;;3.70;3.40;;;;;;;;;;5087012;28;20825;-68
2023/10/24 07:45:33;;;;;;;2.93;2.80;;;;;;;;;;5087283;28;20487;-67
2023/10/24 07:48:00;;;;;;;2.10;1.60;;;;;;;;;;5089899;28;20420;-67
2023/10/24 07:50:28;;;;;;;3.77;2.13;;;;;;;;;;5085550;28;20441;-67
2023/10/24 07:52:54;;;;;;;2.00;1.90;;;;;;;;;;5083277;28;20445;-68
2023/10/24 07:55:20;;;;;;;2.27;2.17;;;;;;;;;;5084968;28;20485;-67
2023/10/24 07:57:47;;;;;;;2.07;1.97;;;;;;;;;;5086147;28;20516;-68
2023/10/24 08:00:13;;;;;;;2.10;1.90;;;;;;;;;;5084784;28;20439;-68
2023/10/24 08:02:39;;;;;;;2.40;1.70;;;;;;;;;;5085304;28;20517;-68
2023/10/24 08:05:05;;;;;;;1.40;1.40;;;;;;;;;;5087225;28;20464;-67
2023/10/24 08:07:31;;;;;;;2.27;1.90;;;;;;;;;;5088007;28;21276;-67
2023/10/24 08:09:57;;;;;;;1.60;1.50;;;;;;;;;;5086478;28;20528;-67
2023/10/24 08:12:23;;;;;;;6.57;2.63;;;;;;;;;;5090053;28;20997;-67
2023/10/24 08:14:49;;;;;;;2.90;2.70;;;;;;;;;;5088740;28;20455;-67
2023/10/24 08:17:15;;;;;;;4.07;3.87;;;;;;;;;;5089415;28;20424;-67
2023/10/24 08:19:41;;;;;;;2.87;2.67;;;;;;;;;;5090174;28;20477;-67
2023/10/24 08:22:07;;;;;;;2.80;2.70;;;;;;;;;;5090019;28;21823;-67
2023/10/24 08:24:33;;;;;;;3.07;2.87;;;;;;;;;;5089217;28;20416;-67
2023/10/24 08:26:59;;;;;;;3.30;3.10;;;;;;;;;;5087199;28;20447;-67
2023/10/24 08:29:25;;;;;;;3.90;3.70;;;;;;;;;;5085946;28;20956;-68
2023/10/24 08:31:51;;;;;;;5.33;3.90;;;;;;;;;;5086842;28;20444;-68
2023/10/24 08:34:17;;;;;;;4.80;4.50;;;;;;;;;;5089041;28;20431;-68
2023/10/24 08:36:43;;;;;;;3.90;3.80;;;;;;;;;;5084857;28;21096;-67
2023/10/24 08:39:09;;;;;;;6.10;3.80;;;;;;;;;;5089844;28;20447;-67
2023/10/24 08:41:35;;;;;;;3.30;3.10;;;;;;;;;;5089642;28;20905;-67
2023/10/24 08:44:02;;;;;;;4.33;4.13;;;;;;;;;;5089798;28;20416;-67
2023/10/24 08:46:28;;;;;;;7.20;3.70;;;;;;;;;;5087826;28;20538;-67
2023/10/24 08:48:54;;;;;;;4.70;3.90;;;;;;;;;;5087339;28;20447;-67
2023/10/24 08:51:20;;;;;;;4.30;4.00;;;;;;;;;;5088723;28;20510;-67
2023/10/24 08:53:46;;;;;;;5.30;4.23;;;;;;;;;;5086683;28;20522;-67
2023/10/24 08:56:13;;;;;;;4.13;3.83;;;;;;;;;;5083161;28;20469;-68
2023/10/24 08:58:38;;;;;;;12.47;8.10;;;;;;;;;;5086851;28;20849;-67
2023/10/24 09:01:06;;;;;;;14.93;6.40;;;;;;;;;;5088016;28;20420;-67
2023/10/24 09:03:32;;;;;;;10.37;5.30;;;;;;;;;;5082541;28;20447;-67
2023/10/24 09:05:58;;;;;;;4.77;4.37;;;;;;;;;;5087282;28;20480;-67
2023/10/24 09:08:25;;;;;;;6.10;5.67;;;;;;;;;;5088548;28;20804;-67
2023/10/24 09:10:51;;;;;;;4.70;4.30;;;;;;;;;;5088823;28;20512;-67
2023/10/24 09:13:18;;;;;;;4.10;4.00;;;;;;;;;;5092540;28;20439;-67
2023/10/24 09:15:44;;;;;;;3.50;3.40;;;;;;;;;;5092700;28;20440;-67
2023/10/24 09:18:10;;;;;;;3.20;3.00;;;;;;;;;;5091595;28;20436;-68
2023/10/24 09:20:36;;;;;;;5.63;5.43;;;;;;;;;;5092923;28;20417;-67
2023/10/24 09:23:11;;;;;;;3.13;3.03;;;;;;;;;;5092848;28;20424;-68
2023/10/24 09:25:38;;;;;;;3.30;3.23;;;;;;;;;;5091700;28;20617;-67
2023/10/24 09:28:17;;;;;;;3.93;3.63;;;;;;;;;;5088790;28;20844;-67
2023/10/24 09:30:43;;;;;;;1.80;1.70;;;;;;;;;;5088973;28;20435;-67
2023/10/24 09:33:08;;;;;;;4.63;3.50;;;;;;;;;;5089207;28;20444;-67
2023/10/24 09:35:38;;;;;;;2.20;2.00;;;;;;;;;;5089572;28;20440;-67
2023/10/24 09:38:07;;;;;;;2.70;2.50;;;;;;;;;;5091285;28;20440;-68
2023/10/24 09:40:36;;;;;;;4.10;2.43;;;;;;;;;;5087479;28;20448;-67
2023/10/24 09:43:12;;;;;;;3.70;3.53;;;;;;;;;;5087277;28;20441;-67
2023/10/24 09:45:43;;;;;;;1.50;1.40;;;;;;;;;;5091281;28;20479;-67
2023/10/24 09:48:09;;;;;;;1.73;1.73;;;;;;;;;;5090977;28;20477;-67
2023/10/24 09:50:36;;;;;;;2.27;0.93;;;;;;;;;;5088694;28;20436;-67
2023/10/24 09:53:02;;;;;;;0.60;0.60;;;;;;;;;;5092652;28;20783;-67
2023/10/24 09:55:28;;;;;;;5.97;2.53;;;;;;;;;;5088017;28;20439;-67
2023/10/24 09:57:56;;;;;;;1.70;1.03;;;;;;;;;;5089731;28;20479;-67
2023/10/24 10:00:22;;;;;;;2.23;1.70;;;;;;;;;;5091854;28;20448;-68
2023/10/24 10:02:48;;;;;;;4.90;0.90;;;;;;;;;;5088336;28;20911;-67
2023/10/24 10:05:14;;;;;;;3.83;1.00;;;;;;;;;;5092087;28;20456;-67
2023/10/24 10:07:41;;;;;;;2.80;1.13;;;;;;;;;;5092522;28;20444;-67
2023/10/24 10:10:08;;;;;;;19.93;11.00;;;;;;;;;;5091855;28;20485;-67
2023/10/24 10:12:34;;;;;;;1.13;1.10;;;;;;;;;;5087207;28;20795;-67
2023/10/24 10:15:21;;;;;;;1.90;0.90;;;;;;;;;;5087241;28;20439;-67
2023/10/24 10:17:57;;;;;;;2.27;2.17;;;;;;;;;;5089085;28;20424;-68
2023/10/24 10:20:23;;;;;;;1.50;1.33;;;;;;;;;;5090962;28;20939;-67
2023/10/24 10:22:58;;;;;;;1.03;1.03;;;;;;;;;;5091271;28;20425;-69
2023/10/24 10:25:45;;;;;;;1.80;1.70;;;;;;;;;;5086539;28;21002;-67
2023/10/24 10:28:18;;;;;;;1.63;1.60;;;;;;;;;;5089417;28;20528;-67
2023/10/24 10:30:49;;;;;;;2.17;2.10;;;;;;;;;;5091411;28;20928;-67
2023/10/24 10:33:22;;;;;;;5.03;3.03;;;;;;;;;;5089620;28;20940;-67
2023/10/24 10:35:49;;;;;;;2.83;1.80;;;;;;;;;;5090233;28;20427;-67
2023/10/24 10:38:25;;;;;;;3.20;3.00;;;;;;;;;;5086148;28;20427;-68
2023/10/24 10:40:51;;;;;;;0.70;0.70;;;;;;;;;;5087635;28;20424;-67
2023/10/24 10:43:36;;;;;;;2.60;2.40;;;;;;;;;;5091482;28;20429;-67
2023/10/24 10:46:17;;;;;;;1.50;1.50;;;;;;;;;;5086372;28;20545;-69
2023/10/24 10:48:43;;;;;;;1.23;1.23;;;;;;;;;;5085491;28;20416;-67
2023/10/24 10:51:13;;;;;;;2.80;1.17;;;;;;;;;;5088447;28;20948;-68
2023/10/24 10:53:46;;;;;;;2.40;2.13;;;;;;;;;;5091457;28;20417;-67
2023/10/24 10:56:25;;;;;;;1.30;0.97;;;;;;;;;;5090608;28;21013;-68
2023/10/24 10:58:51;;;;;;;0.90;0.50;;;;;;;;;;5084533;28;20421;-67
2023/10/24 11:01:33;;;;;;;0.77;0.77;;;;;;;;;;5088252;28;20786;-67
2023/10/24 11:04:00;;;;;;;1.07;0.70;;;;;;;;;;5088935;28;20408;-67
2023/10/24 11:06:27;;;;;;;5.70;0.90;;;;;;;;;;5084957;28;20482;-67
2023/10/24 11:09:06;;;;;;;10.67;3.83;;;;;;;;;;5088695;28;20421;-67
2023/10/24 11:11:33;;;;;;;0.60;0.60;;;;;;;;;;5085436;28;20432;-67
2023/10/24 11:14:17;;;;;;;0.60;0.60;;;;;;;;;;5084619;28;21061;-67
2023/10/24 11:16:43;;;;;;;1.00;0.60;;;;;;;;;;5080791;28;20448;-67
2023/10/24 11:19:30;;;;;;;1.63;1.13;;;;;;;;;;5087529;28;20931;-67
2023/10/24 11:21:57;;;;;;;0.80;0.80;;;;;;;;;;5086442;28;20408;-67
2023/10/24 11:24:23;;;;;;;1.37;0.50;;;;;;;;;;5086617;28;20846;-67
2023/10/24 11:26:55;;;;;;;0.63;0.50;;;;;;;;;;5085384;28;20827;-70
2023/10/24 11:29:21;;;;;;;0.50;0.50;;;;;;;;;;5083381;28;20425;-68
2023/10/24 11:31:48;;;;;;;0.60;0.60;;;;;;;;;;5077692;28;20436;-68
2023/10/24 11:34:14;;;;;;;3.23;0.50;;;;;;;;;;5082992;28;20437;-68
2023/10/24 11:36:41;;;;;;;0.70;0.70;;;;;;;;;;5082592;28;20434;-70
2023/10/24 11:39:07;;;;;;;0.40;0.40;;;;;;;;;;5083099;28;20670;-68
2023/10/24 11:41:33;;;;;;;1.00;1.00;;;;;;;;;;5085410;28;20441;-67
2023/10/24 11:43:59;;;;;;;0.60;0.50;;;;;;;;;;5085084;28;20441;-67
2023/10/24 11:46:25;;;;;;;0.60;0.50;;;;;;;;;;5085076;28;20960;-68
2023/10/24 11:48:51;;;;;;;0.90;0.90;;;;;;;;;;5084261;28;20425;-67
2023/10/24 11:51:17;;;;;;;1.80;0.90;;;;;;;;;;5085385;28;20432;-67
2023/10/24 11:53:43;;;;;;;2.60;0.67;;;;;;;;;;5086419;28;20927;-67
2023/10/24 11:56:10;;;;;;;0.60;0.60;;;;;;;;;;5084343;28;20482;-67
2023/10/24 11:58:36;;;;;;;0.80;0.60;;;;;;;;;;5083354;28;20789;-69
2023/10/24 12:01:02;;;;;;;1.03;1.03;;;;;;;;;;5082328;28;20449;-70
2023/10/24 12:03:42;;;;;;;1.20;1.10;;;;;;;;;;5088404;28;20508;-71
2023/10/24 12:06:08;;;;;;;1.03;0.70;;;;;;;;;;5088605;28;20484;-67
2023/10/24 12:08:35;;;;;;;0.60;0.60;;;;;;;;;;5087011;28;20794;-67
2023/10/24 12:11:01;;;;;;;0.93;0.90;;;;;;;;;;5088405;28;20473;-69
2023/10/24 12:13:27;;;;;;;10.30;0.90;;;;;;;;;;5088353;28;20529;-67
2023/10/24 12:15:53;;;;;;;0.60;0.60;;;;;;;;;;5086763;28;20436;-69
2023/10/24 12:18:19;;;;;;;0.60;0.60;;;;;;;;;;5088885;28;20413;-69
2023/10/24 12:20:45;;;;;;;1.30;0.90;;;;;;;;;;5088064;28;20517;-69
2023/10/24 12:23:11;;;;;;;1.47;0.70;;;;;;;;;;5083002;28;20454;-68
2023/10/24 12:25:37;;;;;;;0.80;0.80;;;;;;;;;;5086082;28;20461;-67
2023/10/24 12:28:03;;;;;;;0.87;0.87;;;;;;;;;;5087874;28;20451;-67
2023/10/24 12:30:29;;;;;;;0.57;0.57;;;;;;;;;;5089434;28;20405;-68
2023/10/24 12:32:55;;;;;;;0.83;0.77;;;;;;;;;;5087812;28;20433;-68
2023/10/24 12:35:21;;;;;;;1.53;1.43;;;;;;;;;;5087834;28;20916;-67
2023/10/24 12:37:47;;;;;;;0.60;0.60;;;;;;;;;;5086410;28;20429;-67
2023/10/24 12:40:13;;;;;;;0.60;0.60;;;;;;;;;;5086539;28;20427;-68
2023/10/24 12:42:39;;;;;;;0.53;0.53;;;;;;;;;;5089757;28;20446;-68
2023/10/24 12:45:05;;;;;;;0.77;0.50;;;;;;;;;;5088817;28;20464;-67
2023/10/24 12:47:32;;;;;;;2.60;0.50;;;;;;;;;;5088765;28;20516;-67
2023/10/24 12:49:57;;;;;;;0.70;0.70;;;;;;;;;;5091607;28;20515;-69
2023/10/24 12:52:24;;;;;;;0.80;0.80;;;;;;;;;;5092644;28;20604;-68
2023/10/24 12:54:50;;;;;;;0.40;0.40;;;;;;;;;;5092093;28;20428;-68
2023/10/24 12:57:18;;;;;;;1.43;0.57;;;;;;;;;;5088286;28;20975;-68
2023/10/24 12:59:44;;;;;;;3.50;0.50;;;;;;;;;;5091192;28;20458;-68
2023/10/24 13:02:10;;;;;;;0.70;0.70;;;;;;;;;;5090522;28;20432;-68
2023/10/24 13:04:36;;;;;;;0.63;0.60;;;;;;;;;;5089626;28;20451;-69
2023/10/24 13:07:05;;;;;;;1.13;0.70;;;;;;;;;;5079565;28;20502;-68
2023/10/24 13:09:34;;;;;;;0.50;0.50;;;;;;;;;;5089897;28;20436;-68
2023/10/24 13:12:00;;;;;;;1.77;0.60;;;;;;;;;;5090638;28;20451;-69
2023/10/24 13:14:27;;;;;;;0.60;0.60;;;;;;;;;;5091533;28;20424;-73
2023/10/24 13:16:56;;;;;;;1.10;1.10;;;;;;;;;;5090990;28;20928;-68
2023/10/24 13:19:22;;;;;;;0.80;0.80;;;;;;;;;;5089926;28;20947;-67
2023/10/24 13:21:48;;;;;;;0.70;0.70;;;;;;;;;;5092154;28;20433;-67
2023/10/24 13:24:14;;;;;;;0.50;0.50;;;;;;;;;;5089210;28;20437;-67
2023/10/24 13:26:40;;;;;;;0.80;0.80;;;;;;;;;;5088662;28;20487;-67
2023/10/24 13:29:06;;;;;;;0.57;0.57;;;;;;;;;;5092538;28;20967;-68
2023/10/24 13:31:31;;;;;;;6.53;6.03;;;;;;;;;;5089216;28;20488;-68
2023/10/24 13:33:57;;;;;;;1.10;1.10;;;;;;;;;;5088789;28;20432;-67
2023/10/24 13:36:24;;;;;;;1.00;0.90;;;;;;;;;;5090775;28;20428;-67
2023/10/24 13:38:50;;;;;;;1.20;0.50;;;;;;;;;;5091378;28;21828;-68
2023/10/24 13:41:16;;;;;;;0.50;0.50;;;;;;;;;;5091666;28;20446;-67
2023/10/24 13:43:42;;;;;;;0.70;0.60;;;;;;;;;;5091109;28;20424;-67
2023/10/24 13:46:08;;;;;;;0.77;0.77;;;;;;;;;;5088462;28;20845;-68
2023/10/24 13:48:34;;;;;;;0.40;0.40;;;;;;;;;;5084516;28;20967;-67
2023/10/24 13:51:00;;;;;;;0.70;0.70;;;;;;;;;;5089431;28;20444;-67
2023/10/24 13:53:26;;;;;;;0.90;0.90;;;;;;;;;;5092998;28;20417;-68
2023/10/24 13:55:52;;;;;;;1.10;1.10;;;;;;;;;;5086653;28;21002;-67
2023/10/24 13:58:18;;;;;;;0.90;0.90;;;;;;;;;;5090604;28;20490;-67
2023/10/24 14:00:45;;;;;;;1.20;1.20;;;;;;;;;;5086891;28;20512;-67
2023/10/24 14:03:11;;;;;;;1.10;1.10;;;;;;;;;;5092092;28;20432;-67
2023/10/24 14:05:38;;;;;;;2.00;1.37;;;;;;;;;;5081087;28;20493;-68
2023/10/24 14:08:04;;;;;;;2.10;1.27;;;;;;;;;;5085433;28;20425;-68
2023/10/24 14:10:30;;;;;;;1.33;1.13;;;;;;;;;;5087866;28;20928;-67
2023/10/24 14:12:56;;;;;;;1.20;1.10;;;;;;;;;;5082687;28;20421;-68
2023/10/24 14:15:22;;;;;;;4.83;2.40;;;;;;;;;;5086274;28;20425;-68
2023/10/24 14:17:48;;;;;;;4.03;1.30;;;;;;;;;;5085314;28;20447;-68
2023/10/24 14:20:14;;;;;;;0.90;0.90;;;;;;;;;;5091378;28;20474;-70
2023/10/24 14:22:40;;;;;;;0.60;0.60;;;;;;;;;;5090947;28;20420;-69
2023/10/24 14:25:08;;;;;;;0.87;0.87;;;;;;;;;;5090911;28;20500;-67
2023/10/24 14:27:34;;;;;;;2.20;0.90;;;;;;;;;;5084968;28;20452;-68
2023/10/24 14:30:00;;;;;;;0.77;0.63;;;;;;;;;;5086187;28;20433;-67
2023/10/24 14:32:26;;;;;;;1.07;0.87;;;;;;;;;;5087186;28;20479;-67
2023/10/24 14:34:52;;;;;;;1.30;0.77;;;;;;;;;;5084006;28;20440;-67
2023/10/24 14:37:18;;;;;;;0.80;0.80;;;;;;;;;;5085595;28;20501;-70
2023/10/24 14:39:43;;;;;;;1.10;1.10;;;;;;;;;;5088158;28;20630;-67
2023/10/24 14:42:09;;;;;;;0.80;0.70;;;;;;;;;;5083465;28;20440;-67